Time;durP1;ratioP1;P1;durP2;ratioP2;P2;SDS_P1;SDS_P2;PMS_P1;PMS_P2;Temp;Humidity;BMP_temperature;BMP_pressure;BME280_temperature;BME280_humidity;BME280_pressure;Samples;Min_cycle;Max_cycle;Signal;HPM_P1;HPM_P2
2021/06/03 00:00:16;;;;;;;4.40;4.10;;;;;;;20.80;57.72;96589.00;4987434;28;20950;-74
2021/06/03 00:02:43;;;;;;;6.77;4.57;;;;;;;20.78;57.74;96596.50;4992633;28;20423;-69
2021/06/03 00:05:09;;;;;;;5.30;4.90;;;;;;;20.77;57.81;96589.53;4986309;28;20429;-73
2021/06/03 00:07:34;;;;;;;4.00;3.70;;;;;;;20.75;57.42;96592.50;4995178;28;20459;-69
2021/06/03 00:10:00;;;;;;;4.43;4.13;;;;;;;20.75;57.82;96592.50;4996827;28;20260;-69
2021/06/03 00:12:25;;;;;;;5.30;4.90;;;;;;;20.68;57.82;96593.91;4996501;28;20170;-74
2021/06/03 00:14:51;;;;;;;4.87;4.50;;;;;;;20.63;57.66;96605.47;4994636;28;20567;-74
2021/06/03 00:17:16;;;;;;;5.63;4.50;;;;;;;20.56;58.60;96602.31;4995219;28;20690;-74
2021/06/03 00:19:42;;;;;;;4.90;4.60;;;;;;;20.48;58.99;96606.41;4985336;28;20261;-74
2021/06/03 00:22:07;;;;;;;5.83;5.43;;;;;;;20.57;59.44;96608.44;4996166;28;20166;-70
2021/06/03 00:24:33;;;;;;;5.23;4.80;;;;;;;20.53;60.09;96615.44;4977720;28;20196;-73
2021/06/03 00:26:58;;;;;;;5.37;4.97;;;;;;;20.49;59.95;96612.53;4987230;28;20181;-69
2021/06/03 00:29:23;;;;;;;5.70;5.30;;;;;;;20.41;60.06;96619.28;4988530;28;20538;-69
2021/06/03 00:31:49;;;;;;;4.90;4.60;;;;;;;20.44;59.04;96616.03;4977835;28;20518;-69
2021/06/03 00:34:14;;;;;;;4.93;4.53;;;;;;;20.37;60.33;96623.59;4987521;28;20201;-71
2021/06/03 00:36:40;;;;;;;5.17;4.77;;;;;;;20.33;60.56;96613.75;4988620;28;20246;-68
2021/06/03 00:39:06;;;;;;;4.60;4.30;;;;;;;20.29;60.95;96618.84;4976798;28;20169;-69
2021/06/03 00:41:32;;;;;;;5.00;4.60;;;;;;;20.31;60.71;96611.34;4976671;28;20206;-69
2021/06/03 00:44:00;;;;;;;4.93;4.60;;;;;;;20.27;60.12;96618.31;4992780;28;20479;-74
2021/06/03 00:46:25;;;;;;;4.93;4.63;;;;;;;20.21;60.32;96616.00;4994527;28;20177;-74
2021/06/03 00:48:50;;;;;;;5.10;4.70;;;;;;;20.12;60.80;96626.44;4991630;28;20870;-69
2021/06/03 00:51:16;;;;;;;5.87;5.37;;;;;;;20.18;60.24;96616.56;4991181;28;20591;-70
2021/06/03 00:53:43;;;;;;;5.07;4.67;;;;;;;20.18;60.44;96621.91;4994409;28;20233;-70
2021/06/03 00:56:09;;;;;;;5.47;5.00;;;;;;;20.23;60.01;96630.66;4983981;28;20208;-69
2021/06/03 00:58:35;;;;;;;5.37;5.00;;;;;;;20.20;60.66;96625.88;4979580;28;20842;-69
2021/06/03 01:01:01;;;;;;;5.67;5.20;;;;;;;20.15;60.79;96622.41;4985475;28;20492;-73
2021/06/03 01:03:28;;;;;;;6.00;5.50;;;;;;;20.16;60.95;96624.81;4976969;28;20814;-69
2021/06/03 01:05:59;;;;;;;6.13;5.73;;;;;;;20.16;61.39;96618.69;4976383;28;20417;-69
2021/06/03 01:08:47;;;;;;;5.53;5.13;;;;;;;20.17;61.31;96629.09;4989192;28;20511;-69
2021/06/03 01:11:18;;;;;;;6.07;5.47;;;;;;;20.13;61.63;96625.34;4995838;28;20405;-69
2021/06/03 01:14:03;;;;;;;5.47;5.07;;;;;;;20.11;62.08;96624.84;4979885;28;20448;-74
2021/06/03 01:16:31;;;;;;;5.80;5.40;;;;;;;20.05;63.04;96628.63;4991613;28;20869;-69
2021/06/03 01:18:58;;;;;;;5.67;5.27;;;;;;;20.01;63.65;96626.78;4990061;28;20420;-73
2021/06/03 01:21:28;;;;;;;5.73;5.23;;;;;;;19.98;63.87;96627.34;4995464;28;20448;-73
2021/06/03 01:24:18;;;;;;;5.43;5.03;;;;;;;19.97;64.21;96620.41;4979750;28;20433;-68
2021/06/03 01:26:45;;;;;;;5.80;5.40;;;;;;;19.93;64.32;96632.75;4976170;28;20423;-74
2021/06/03 01:29:13;;;;;;;6.10;5.70;;;;;;;19.92;63.99;96629.25;4993783;28;20448;-74
2021/06/03 01:31:39;;;;;;;6.53;6.07;;;;;;;19.95;63.88;96626.03;4980688;28;20473;-69
2021/06/03 01:34:04;;;;;;;5.43;5.03;;;;;;;19.98;63.40;96628.16;4975753;28;20431;-74
2021/06/03 01:36:31;;;;;;;5.10;4.60;;;;;;;19.96;63.51;96632.16;4987744;28;20630;-73
2021/06/03 01:38:56;;;;;;;5.73;5.17;;;;;;;20.00;63.63;96638.56;4993407;28;20585;-68
2021/06/03 01:41:22;;;;;;;5.13;4.73;;;;;;;19.97;64.36;96637.22;4995215;28;20463;-69
2021/06/03 01:43:48;;;;;;;5.80;5.30;;;;;;;19.95;64.14;96630.56;4987608;28;20193;-74
2021/06/03 01:46:14;;;;;;;5.37;4.87;;;;;;;19.92;64.61;96634.59;4993287;28;20228;-74
2021/06/03 01:48:41;;;;;;;5.57;5.17;;;;;;;19.94;64.89;96637.00;4989471;28;20194;-69
2021/06/03 01:51:10;;;;;;;5.53;5.07;;;;;;;19.91;64.96;96635.66;4975526;28;20401;-74
2021/06/03 01:53:38;;;;;;;6.43;5.83;;;;;;;19.88;65.07;96632.75;4975954;28;20479;-73
2021/06/03 01:56:07;;;;;;;5.57;5.17;;;;;;;19.78;66.17;96632.84;4975527;28;20398;-69
2021/06/03 01:58:32;;;;;;;5.60;5.10;;;;;;;19.81;65.90;96635.75;4985516;28;20421;-74
2021/06/03 02:00:59;;;;;;;5.67;5.27;;;;;;;19.78;66.01;96632.84;4979158;28;20425;-69
2021/06/03 02:03:26;;;;;;;5.20;4.80;;;;;;;19.77;66.14;96648.03;4975079;28;20280;-72
2021/06/03 02:05:53;;;;;;;5.77;5.27;;;;;;;19.72;66.54;96645.41;4976167;28;20988;-68
2021/06/03 02:08:18;;;;;;;6.13;5.60;;;;;;;19.73;66.60;96652.31;4991985;28;20425;-73
2021/06/03 02:10:44;;;;;;;5.90;5.30;;;;;;;19.74;66.60;96648.59;4994735;28;20407;-69
2021/06/03 02:13:15;;;;;;;4.83;4.47;;;;;;;19.73;66.34;96643.53;4978053;28;20226;-69
2021/06/03 02:16:04;;;;;;;5.33;4.93;;;;;;;19.70;66.17;96642.22;4987739;28;20200;-69
2021/06/03 02:18:32;;;;;;;5.67;5.30;;;;;;;19.61;66.01;96651.84;4992940;28;20421;-69
2021/06/03 02:21:00;;;;;;;6.40;5.83;;;;;;;19.66;65.88;96641.16;4976978;28;20420;-69
2021/06/03 02:23:27;;;;;;;4.80;4.40;;;;;;;19.72;66.00;96652.59;4977000;28;20449;-68
2021/06/03 02:25:58;;;;;;;5.17;4.77;;;;;;;19.74;66.77;96645.13;4988973;28;20816;-73
2021/06/03 02:28:23;;;;;;;5.33;5.00;;;;;;;19.79;66.77;96648.56;4975113;28;20421;-73
2021/06/03 02:30:49;;;;;;;5.67;5.27;;;;;;;19.85;65.50;96650.13;4975022;28;20414;-69
2021/06/03 02:33:15;;;;;;;5.40;5.00;;;;;;;19.83;65.75;96646.13;4987459;28;20193;-74
2021/06/03 02:35:40;;;;;;;5.30;4.87;;;;;;;19.87;65.71;96645.31;4981570;28;20428;-73
2021/06/03 02:38:06;;;;;;;6.30;5.70;;;;;;;19.91;65.73;96645.56;4974956;28;20228;-69
2021/06/03 02:40:32;;;;;;;5.13;4.73;;;;;;;19.96;66.01;96645.50;4975853;28;20702;-68
2021/06/03 02:42:58;;;;;;;5.47;5.10;;;;;;;19.98;65.56;96646.84;4974314;28;20221;-74
2021/06/03 02:45:30;;;;;;;6.23;5.73;;;;;;;19.95;65.38;96644.72;4980429;28;20187;-74
2021/06/03 02:47:56;;;;;;;5.57;5.17;;;;;;;20.01;65.39;96640.13;4988971;28;20185;-74
2021/06/03 02:50:24;;;;;;;5.60;5.20;;;;;;;20.09;65.48;96645.66;4991992;28;20801;-73
2021/06/03 02:52:50;;;;;;;4.73;4.43;;;;;;;20.13;65.58;96636.03;4993636;28;20436;-73
2021/06/03 02:55:19;;;;;;;5.37;4.97;;;;;;;20.17;65.67;96644.31;4984080;28;20420;-74
2021/06/03 02:57:44;;;;;;;4.80;4.40;;;;;;;20.10;65.59;96652.63;4957347;28;20843;-73
2021/06/03 03:00:17;;;;;;;5.20;4.80;;;;;;;20.14;65.35;96648.31;4969586;28;20543;-69
2021/06/03 03:02:43;;;;;;;4.67;4.37;;;;;;;20.21;65.74;96650.69;4993742;28;20224;-73
2021/06/03 03:05:09;;;;;;;4.67;4.27;;;;;;;20.26;65.41;96656.78;4987790;28;20841;-73
2021/06/03 03:07:36;;;;;;;5.00;4.70;;;;;;;20.30;65.65;96660.50;4980734;28;20644;-71
2021/06/03 03:10:05;;;;;;;4.90;4.60;;;;;;;20.36;65.86;96661.25;4984394;28;20457;-69
2021/06/03 03:12:30;;;;;;;4.43;4.13;;;;;;;20.39;65.82;96661.50;4977935;28;20556;-69
2021/06/03 03:14:55;;;;;;;5.03;4.50;;;;;;;20.40;66.54;96662.25;4983626;28;20511;-69
2021/06/03 03:17:21;;;;;;;4.70;4.37;;;;;;;20.41;66.85;96666.53;4978338;28;20184;-73
2021/06/03 03:19:46;;;;;;;5.10;4.80;;;;;;;20.44;67.14;96660.63;4997863;28;20166;-69
2021/06/03 03:22:12;;;;;;;4.87;4.47;;;;;;;20.43;66.93;96670.53;4995675;28;20650;-73
2021/06/03 03:24:37;;;;;;;4.37;4.07;;;;;;;20.42;67.19;96666.25;4995460;28;20197;-69
2021/06/03 03:27:03;;;;;;;5.10;4.70;;;;;;;20.41;67.84;96669.22;4981656;28;20640;-68
2021/06/03 03:29:28;;;;;;;5.53;5.10;;;;;;;20.45;67.51;96665.69;4997471;28;20224;-73
2021/06/03 03:31:54;;;;;;;5.37;4.97;;;;;;;20.45;67.34;96676.38;4995617;28;20177;-68
2021/06/03 03:34:19;;;;;;;4.27;4.07;;;;;;;20.39;67.17;96674.03;4980864;28;20549;-69
2021/06/03 03:36:45;;;;;;;5.13;3.70;;;;;;;20.25;66.54;96673.09;4981218;28;20260;-73
2021/06/03 03:39:12;;;;;;;4.37;4.00;;;;;;;20.14;67.11;96669.66;4978065;28;20249;-68
2021/06/03 03:41:38;;;;;;;4.53;4.13;;;;;;;20.12;67.28;96671.81;4977909;28;20449;-69
2021/06/03 03:44:03;;;;;;;5.10;4.70;;;;;;;20.22;67.22;96671.75;4977863;28;20425;-73
2021/06/03 03:46:29;;;;;;;4.40;4.10;;;;;;;20.14;67.38;96668.88;4992528;28;20424;-71
2021/06/03 03:48:54;;;;;;;4.70;4.33;;;;;;;20.22;67.52;96673.63;4995937;28;20193;-68
2021/06/03 03:51:20;;;;;;;5.00;4.10;;;;;;;20.33;67.48;96677.81;4981176;28;20177;-73
2021/06/03 03:53:45;;;;;;;5.20;4.07;;;;;;;20.45;68.28;96676.38;4977240;28;20190;-73
2021/06/03 03:56:13;;;;;;;4.47;4.17;;;;;;;20.49;68.81;96680.06;4977404;28;20721;-68
2021/06/03 03:58:42;;;;;;;4.60;4.30;;;;;;;20.56;68.75;96682.44;4977443;28;20179;-69
2021/06/03 04:01:07;;;;;;;4.70;4.40;;;;;;;20.61;68.61;96679.72;4990144;28;20511;-68
2021/06/03 04:03:33;;;;;;;4.07;3.87;;;;;;;20.55;68.08;96690.72;4978912;28;20519;-69
2021/06/03 04:05:58;;;;;;;4.77;4.47;;;;;;;20.61;66.90;96681.59;4989361;28;20188;-68
2021/06/03 04:08:24;;;;;;;4.30;4.00;;;;;;;20.62;67.69;96689.31;4983465;28;20265;-68
2021/06/03 04:10:50;;;;;;;4.53;4.20;;;;;;;20.64;67.33;96692.50;4995369;28;20189;-73
2021/06/03 04:13:16;;;;;;;4.60;4.30;;;;;;;20.71;67.55;96694.88;4996432;28;20201;-68
2021/06/03 04:15:41;;;;;;;4.90;4.60;;;;;;;20.75;68.12;96688.66;4994553;28;20559;-73
2021/06/03 04:18:07;;;;;;;4.43;4.13;;;;;;;20.80;68.97;96703.88;4996885;28;20401;-69
2021/06/03 04:20:33;;;;;;;3.97;3.67;;;;;;;20.88;68.73;96700.56;4994419;28;20216;-68
2021/06/03 04:23:00;;;;;;;3.87;3.67;;;;;;;20.90;69.18;96703.75;4996161;28;20678;-73
2021/06/03 04:25:26;;;;;;;5.07;4.70;;;;;;;20.96;69.40;96697.28;4995555;28;20433;-68
2021/06/03 04:27:51;;;;;;;4.23;3.93;;;;;;;20.97;69.71;96706.88;4996635;28;20420;-68
2021/06/03 04:30:19;;;;;;;4.50;4.20;;;;;;;20.96;69.84;96702.63;4994605;28;20729;-69
2021/06/03 04:32:45;;;;;;;4.80;4.37;;;;;;;20.96;69.55;96705.31;4995214;28;20628;-72
2021/06/03 04:35:11;;;;;;;4.27;3.97;;;;;;;20.98;70.14;96709.28;4981387;28;20420;-69
2021/06/03 04:37:36;;;;;;;4.80;4.10;;;;;;;20.99;70.43;96715.41;4996505;28;20180;-74
2021/06/03 04:40:03;;;;;;;4.70;4.40;;;;;;;21.02;70.38;96714.88;4994113;28;20268;-74
2021/06/03 04:42:29;;;;;;;4.63;4.33;;;;;;;20.94;68.29;96726.97;4995729;28;20176;-69
2021/06/03 04:44:54;;;;;;;4.50;4.20;;;;;;;20.91;67.98;96724.03;4991354;28;20429;-74
2021/06/03 04:47:19;;;;;;;4.80;4.40;;;;;;;20.92;68.11;96729.13;4976858;28;20175;-73
2021/06/03 04:49:45;;;;;;;4.27;3.90;;;;;;;20.94;68.06;96720.81;4991369;28;20202;-69
2021/06/03 04:52:26;;;;;;;4.50;4.20;;;;;;;21.00;67.37;96723.19;4995691;28;20224;-68
2021/06/03 04:54:58;;;;;;;4.33;4.03;;;;;;;21.07;68.09;96710.28;4982029;28;20186;-73
2021/06/03 04:57:24;;;;;;;4.37;4.07;;;;;;;21.15;68.40;96714.22;4996067;28;20415;-73
2021/06/03 04:59:50;;;;;;;5.20;3.67;;;;;;;21.21;68.73;96719.25;4984414;28;20429;-73
2021/06/03 05:02:16;;;;;;;4.47;4.07;;;;;;;21.23;67.83;96729.66;4976079;28;20464;-73
2021/06/03 05:04:42;;;;;;;4.43;4.03;;;;;;;21.04;67.84;96734.09;4977148;28;20210;-69
2021/06/03 05:07:10;;;;;;;3.87;3.67;;;;;;;21.08;67.30;96743.16;4991319;28;20823;-68
2021/06/03 05:09:35;;;;;;;4.10;3.70;;;;;;;21.02;67.78;96739.72;4981316;28;20205;-73
2021/06/03 05:12:00;;;;;;;4.03;3.57;;;;;;;21.04;67.77;96742.13;4988499;28;20428;-73
2021/06/03 05:14:26;;;;;;;4.47;4.07;;;;;;;21.11;67.55;96747.94;4995474;28;20185;-73
2021/06/03 05:16:51;;;;;;;4.23;3.47;;;;;;;21.13;67.62;96743.91;4978944;28;20182;-73
2021/06/03 05:19:17;;;;;;;4.50;3.77;;;;;;;21.06;68.09;96750.66;4975846;28;20180;-73
2021/06/03 05:21:42;;;;;;;3.87;3.67;;;;;;;20.98;68.42;96759.28;4984342;28;20177;-69
2021/06/03 05:24:07;;;;;;;3.80;3.60;;;;;;;21.04;68.96;96750.94;4995394;28;20663;-73
2021/06/03 05:26:33;;;;;;;3.43;3.13;;;;;;;21.18;68.43;96759.88;4988424;28;20177;-68
2021/06/03 05:28:58;;;;;;;3.87;3.57;;;;;;;21.21;68.27;96754.00;4995423;28;20280;-69
2021/06/03 05:31:24;;;;;;;3.43;3.23;;;;;;;21.35;68.16;96759.44;4992140;28;20200;-73
2021/06/03 05:33:49;;;;;;;4.33;4.03;;;;;;;21.25;68.35;96763.00;4995053;28;20272;-73
2021/06/03 05:36:14;;;;;;;4.17;3.77;;;;;;;21.21;68.36;96762.00;4985492;28;20233;-68
2021/06/03 05:38:40;;;;;;;3.77;3.43;;;;;;;21.05;69.29;96763.22;4975889;28;20174;-73
2021/06/03 05:41:05;;;;;;;3.70;3.40;;;;;;;21.06;69.50;96766.69;4990961;28;20575;-68
2021/06/03 05:43:30;;;;;;;3.63;3.33;;;;;;;21.08;68.68;96770.69;4994656;28;20201;-72
2021/06/03 05:45:56;;;;;;;4.40;3.30;;;;;;;21.12;68.72;96771.72;4988580;28;20185;-68
2021/06/03 05:48:21;;;;;;;3.60;3.10;;;;;;;21.15;68.57;96773.81;4995197;28;20643;-67
2021/06/03 05:50:47;;;;;;;3.90;3.60;;;;;;;21.26;68.35;96782.53;4982667;28;20285;-72
2021/06/03 05:53:12;;;;;;;3.70;3.30;;;;;;;21.47;67.87;96773.22;4975179;28;20240;-73
2021/06/03 05:55:37;;;;;;;3.83;3.53;;;;;;;21.29;68.45;96779.28;4981278;28;20174;-72
2021/06/03 05:58:03;;;;;;;3.97;3.77;;;;;;;21.40;67.78;96775.44;4974838;28;20267;-72
2021/06/03 06:00:29;;;;;;;3.90;3.60;;;;;;;21.35;68.09;96776.31;4993370;28;20584;-69
2021/06/03 06:02:57;;;;;;;3.90;3.60;;;;;;;21.47;67.52;96782.03;4993079;28;20193;-72
2021/06/03 06:08:10;;;;;;;3.67;3.37;;;;;;;21.55;67.72;96783.31;4978765;28;20523;-72
2021/06/03 06:10:36;;;;;;;3.97;3.53;;;;;;;21.67;67.20;96793.63;4965746;28;21049;-70
2021/06/03 06:13:02;;;;;;;3.80;3.50;;;;;;;21.76;67.04;96797.25;4994200;28;20193;-72
2021/06/03 06:15:30;;;;;;;4.20;3.90;;;;;;;21.64;67.31;96794.97;4993872;28;20902;-73
2021/06/03 06:17:55;;;;;;;4.00;3.63;;;;;;;21.48;67.98;96802.38;4975158;28;20476;-71
2021/06/03 06:20:21;;;;;;;4.07;3.77;;;;;;;21.48;67.96;96804.25;4975186;28;20509;-71
2021/06/03 06:22:47;;;;;;;4.70;3.80;;;;;;;21.58;67.95;96806.03;4975924;28;20198;-71
2021/06/03 06:25:12;;;;;;;4.40;3.90;;;;;;;21.69;67.96;96810.97;4974908;28;20177;-71
2021/06/03 06:27:38;;;;;;;4.13;3.80;;;;;;;21.65;68.33;96804.56;4974936;28;20511;-71
2021/06/03 06:30:07;;;;;;;3.30;3.10;;;;;;;21.84;67.62;96805.47;4975974;28;20197;-71
2021/06/03 06:32:32;;;;;;;3.80;3.50;;;;;;;21.95;66.97;96812.31;4974666;28;20535;-71
2021/06/03 06:34:57;;;;;;;4.23;3.83;;;;;;;21.99;66.87;96813.31;4975018;28;20880;-72
2021/06/03 06:37:23;;;;;;;3.17;2.97;;;;;;;22.04;66.51;96815.94;4963398;28;20177;-71
2021/06/03 06:39:48;;;;;;;3.80;3.50;;;;;;;21.87;66.50;96812.91;4974892;28;20177;-71
2021/06/03 06:42:14;;;;;;;3.20;2.90;;;;;;;21.94;66.51;96821.41;4975148;28;20182;-70
2021/06/03 06:44:39;;;;;;;3.60;3.30;;;;;;;22.06;66.04;96810.28;4975532;28;20196;-70
2021/06/03 06:47:05;;;;;;;3.93;3.73;;;;;;;22.14;66.50;96813.13;4992428;28;20257;-71
2021/06/03 06:49:30;;;;;;;3.77;2.97;;;;;;;22.12;66.91;96812.59;4993942;28;20221;-70
2021/06/03 06:51:56;;;;;;;3.47;3.20;;;;;;;22.33;66.10;96808.59;4980649;28;20178;-69
2021/06/03 06:54:21;;;;;;;3.67;3.37;;;;;;;22.42;65.58;96809.53;4993752;28;20252;-70
2021/06/03 06:56:47;;;;;;;3.27;3.07;;;;;;;22.36;65.40;96812.56;4992857;28;20185;-70
2021/06/03 06:59:13;;;;;;;3.47;3.07;;;;;;;22.42;64.75;96812.22;4993540;28;20170;-70
2021/06/03 07:01:38;;;;;;;3.27;3.07;;;;;;;22.61;65.17;96814.13;4993584;28;20166;-71
2021/06/03 07:04:03;;;;;;;3.03;2.80;;;;;;;22.49;64.50;96817.19;4983838;28;20600;-72
2021/06/03 07:06:29;;;;;;;3.53;2.90;;;;;;;22.66;63.98;96819.41;4989760;28;20188;-71
2021/06/03 07:08:54;;;;;;;2.80;2.60;;;;;;;22.64;63.60;96824.25;4992062;28;20197;-71
2021/06/03 07:11:20;;;;;;;3.30;3.00;;;;;;;22.57;64.29;96824.63;4976464;28;20590;-71
2021/06/03 07:13:45;;;;;;;4.70;2.80;;;;;;;22.45;65.07;96821.53;4989567;28;20197;-70
2021/06/03 07:16:11;;;;;;;5.40;3.30;;;;;;;22.59;64.94;96821.66;4995585;28;20186;-70
2021/06/03 07:18:37;;;;;;;3.80;3.50;;;;;;;22.84;64.45;96821.28;4992861;28;20416;-69
2021/06/03 07:21:02;;;;;;;3.63;3.33;;;;;;;22.45;64.56;96816.97;4993967;28;20166;-69
2021/06/03 07:23:27;;;;;;;3.57;3.30;;;;;;;22.52;65.05;96821.19;4993314;28;20264;-71
2021/06/03 07:26:00;;;;;;;5.77;4.23;;;;;;;22.57;64.16;96821.94;4986054;28;20224;-71
2021/06/03 07:28:26;;;;;;;3.90;3.10;;;;;;;22.67;64.26;96815.63;4974481;28;20166;-71
2021/06/03 07:30:51;;;;;;;3.37;3.07;;;;;;;22.70;63.45;96823.09;4974148;28;20810;-70
2021/06/03 07:33:17;;;;;;;5.53;3.40;;;;;;;22.55;63.89;96828.63;4973957;28;20186;-70
2021/06/03 07:35:42;;;;;;;3.20;3.00;;;;;;;22.60;63.76;96831.28;4981075;28;20181;-71
2021/06/03 07:38:09;;;;;;;3.23;2.93;;;;;;;22.62;63.91;96824.53;4993545;28;20181;-71
2021/06/03 07:40:37;;;;;;;5.60;3.30;;;;;;;22.71;63.95;96832.72;4993725;28;20165;-69
2021/06/03 07:43:06;;;;;;;2.83;2.73;;;;;;;22.95;63.90;96825.38;4976941;28;20453;-71
2021/06/03 07:45:32;;;;;;;3.20;2.97;;;;;;;22.85;62.57;96828.22;4977565;28;20421;-69
2021/06/03 07:47:58;;;;;;;3.20;2.90;;;;;;;22.64;63.28;96833.09;4975169;28;20428;-70
2021/06/03 07:50:26;;;;;;;3.27;3.07;;;;;;;22.65;64.46;96828.53;4980715;28;20534;-69
2021/06/03 07:52:52;;;;;;;4.33;3.20;;;;;;;22.62;64.13;96827.22;4987804;28;20437;-64
2021/06/03 07:55:18;;;;;;;4.17;3.17;;;;;;;22.89;63.46;96821.19;4977224;28;20418;-65
2021/06/03 07:57:46;;;;;;;3.33;3.13;;;;;;;23.20;62.59;96814.25;4964137;28;20177;-64
2021/06/03 08:00:15;;;;;;;4.23;3.20;;;;;;;23.26;63.42;96821.13;4988183;28;20413;-66
2021/06/03 08:02:43;;;;;;;3.13;2.70;;;;;;;23.44;60.84;96817.59;4977734;28;20426;-65
2021/06/03 08:05:09;;;;;;;3.30;3.00;;;;;;;23.53;61.30;96815.03;4990623;28;20482;-65
2021/06/03 08:07:35;;;;;;;3.13;2.70;;;;;;;23.69;60.35;96816.34;4996933;28;20412;-65
2021/06/03 08:10:01;;;;;;;2.80;2.60;;;;;;;23.77;60.13;96821.78;4994621;28;20466;-65
2021/06/03 08:12:26;;;;;;;3.87;3.10;;;;;;;23.77;59.78;96831.75;4996517;28;20408;-66
2021/06/03 08:14:52;;;;;;;3.00;2.60;;;;;;;23.85;58.32;96820.31;4991911;28;20185;-65
2021/06/03 08:17:17;;;;;;;3.70;3.00;;;;;;;23.88;58.58;96820.50;4996652;28;20166;-64
2021/06/03 08:19:42;;;;;;;3.00;2.80;;;;;;;24.00;59.43;96823.53;4994900;28;20280;-65
2021/06/03 08:22:08;;;;;;;2.47;2.30;;;;;;;23.70;57.45;96826.00;4991979;28;20174;-66
2021/06/03 08:24:33;;;;;;;3.17;2.87;;;;;;;23.58;58.14;96826.47;4991871;28;20193;-66
2021/06/03 08:26:58;;;;;;;3.00;2.80;;;;;;;23.77;57.79;96831.75;4993814;28;20232;-66
2021/06/03 08:29:24;;;;;;;2.97;2.77;;;;;;;23.72;58.22;96821.91;4996420;28;20679;-67
2021/06/03 08:31:51;;;;;;;2.93;2.63;;;;;;;23.92;57.72;96820.69;4994357;28;20178;-68
2021/06/03 08:34:17;;;;;;;2.83;2.50;;;;;;;23.98;57.38;96816.84;4987298;28;20198;-66
2021/06/03 08:36:42;;;;;;;4.57;3.03;;;;;;;24.07;57.05;96810.50;4981412;28;20432;-64
2021/06/03 08:39:09;;;;;;;2.80;2.60;;;;;;;24.11;57.30;96811.50;4975640;28;21051;-67
2021/06/03 08:41:42;;;;;;;2.93;2.53;;;;;;;24.14;56.59;96815.44;4988244;28;20173;-66
2021/06/03 08:44:09;;;;;;;2.70;2.50;;;;;;;23.88;58.36;96815.13;4990979;28;21179;-65
2021/06/03 08:46:35;;;;;;;2.80;2.60;;;;;;;24.13;56.87;96820.03;4988613;28;20450;-66
2021/06/03 08:49:04;;;;;;;2.80;2.60;;;;;;;24.28;57.09;96819.72;4972708;28;20453;-66
2021/06/03 08:51:30;;;;;;;2.80;2.60;;;;;;;24.27;56.25;96820.81;4974043;28;21260;-66
2021/06/03 08:53:56;;;;;;;2.57;2.37;;;;;;;24.18;57.77;96814.56;4991837;28;20476;-66
2021/06/03 08:56:23;;;;;;;2.70;2.50;;;;;;;24.31;58.09;96815.63;4990798;28;20457;-66
2021/06/03 08:58:51;;;;;;;3.30;2.63;;;;;;;24.18;56.48;96811.88;4991370;28;20173;-65
2021/06/03 09:01:17;;;;;;;3.30;2.60;;;;;;;24.29;55.78;96805.19;4991781;28;20424;-65
2021/06/03 09:03:43;;;;;;;2.40;2.30;;;;;;;24.48;56.67;96812.31;4991944;28;20451;-68
2021/06/03 09:06:12;;;;;;;3.30;3.00;;;;;;;24.41;56.73;96813.53;4984947;28;20425;-69
2021/06/03 09:08:40;;;;;;;2.60;2.40;;;;;;;24.68;55.90;96817.22;4972820;28;20594;-69
2021/06/03 09:11:08;;;;;;;2.80;2.60;;;;;;;24.63;55.45;96812.75;4983647;28;20511;-67
2021/06/03 09:13:38;;;;;;;2.70;2.50;;;;;;;24.99;55.32;96812.75;4991402;28;20987;-70
2021/06/03 09:16:09;;;;;;;3.80;2.80;;;;;;;25.04;54.45;96809.91;4984585;28;20994;-63
2021/06/03 09:18:39;;;;;;;5.70;2.97;;;;;;;24.89;53.73;96810.31;4972739;28;20417;-70
2021/06/03 09:21:10;;;;;;;2.73;2.53;;;;;;;25.02;53.97;96807.53;4987877;28;20424;-69
2021/06/03 09:23:37;;;;;;;2.70;2.50;;;;;;;24.68;52.94;96806.47;4991671;28;20527;-71
2021/06/03 09:26:11;;;;;;;3.00;2.27;;;;;;;24.92;52.96;96807.00;4978854;28;20429;-63
2021/06/03 09:28:42;;;;;;;3.43;2.53;;;;;;;25.03;53.18;96802.97;4978752;28;20445;-63
2021/06/03 09:31:11;;;;;;;2.23;2.13;;;;;;;25.17;51.62;96806.38;4972604;28;20440;-64
2021/06/03 09:33:40;;;;;;;2.43;2.20;;;;;;;25.28;50.43;96802.31;4973099;28;20450;-62
2021/06/03 09:36:08;;;;;;;4.33;2.50;;;;;;;25.42;51.49;96803.84;4976422;28;20459;-69
2021/06/03 09:38:33;;;;;;;2.30;2.17;;;;;;;25.64;50.96;96797.63;4990592;28;20424;-68
2021/06/03 09:40:59;;;;;;;2.20;2.10;;;;;;;25.37;48.37;96795.09;4989964;28;20454;-71
2021/06/03 09:43:25;;;;;;;2.23;2.13;;;;;;;25.47;49.89;96808.34;4990778;28;20205;-72
2021/06/03 09:45:58;;;;;;;3.53;2.50;;;;;;;25.55;49.73;96802.19;4990549;28;20185;-71
2021/06/03 09:48:54;;;;;;;2.70;2.50;;;;;;;25.73;51.53;96803.84;4988605;28;20265;-65
2021/06/03 09:51:19;;;;;;;2.00;1.90;;;;;;;26.07;49.33;96797.81;4962157;28;20939;-65
2021/06/03 09:53:49;;;;;;;2.40;2.20;;;;;;;26.28;49.70;96796.91;4991066;28;20444;-70
2021/06/03 09:56:25;;;;;;;2.40;2.30;;;;;;;26.55;47.15;96795.00;4984467;28;20882;-67
2021/06/03 09:58:50;;;;;;;3.57;2.70;;;;;;;26.69;48.07;96791.09;4990149;28;20515;-71
2021/06/03 10:01:39;;;;;;;2.00;1.90;;;;;;;26.64;45.22;96785.81;4974776;28;20520;-65
2021/06/03 10:04:05;;;;;;;2.20;2.00;;;;;;;26.54;45.39;96788.84;4971784;28;20198;-64
2021/06/03 10:06:31;;;;;;;3.50;2.30;;;;;;;26.50;46.93;96792.47;4981928;28;20454;-72
2021/06/03 10:08:56;;;;;;;1.90;1.80;;;;;;;26.26;47.52;96796.41;4990740;28;21015;-71
2021/06/03 10:11:45;;;;;;;4.47;2.20;;;;;;;26.33;47.36;96795.94;4971706;28;20253;-69
2021/06/03 10:14:13;;;;;;;3.10;2.90;;;;;;;26.46;47.38;96786.94;4972107;28;20193;-63
2021/06/03 10:16:39;;;;;;;2.03;1.93;;;;;;;26.71;49.89;96798.84;4983593;28;20512;-71
2021/06/03 10:19:17;;;;;;;2.67;2.47;;;;;;;26.99;49.44;96787.44;4990482;28;20428;-71
2021/06/03 10:21:44;;;;;;;2.90;2.10;;;;;;;26.96;44.07;96798.06;4989225;28;20521;-66
2021/06/03 10:24:09;;;;;;;3.70;2.30;;;;;;;27.06;43.98;96793.13;4971498;28;20927;-63
2021/06/03 10:27:07;;;;;;;2.50;2.30;;;;;;;26.93;46.85;96787.91;4973355;28;20437;-65
2021/06/03 10:29:33;;;;;;;2.00;1.90;;;;;;;27.19;46.13;96791.34;4918157;28;20608;-69
2021/06/03 10:31:58;;;;;;;2.70;2.17;;;;;;;27.46;45.36;96790.19;4972040;28;20437;-62
2021/06/03 10:34:24;;;;;;;2.47;2.27;;;;;;;27.68;44.15;96793.47;4980114;28;20729;-68
2021/06/03 10:36:50;;;;;;;2.47;2.27;;;;;;;27.78;46.13;96792.28;4980620;28;20204;-70
2021/06/03 10:39:15;;;;;;;2.70;2.50;;;;;;;27.85;45.47;96784.47;4989032;28;20181;-63
2021/06/03 10:41:40;;;;;;;2.57;2.20;;;;;;;28.05;44.87;96778.34;4988854;28;20512;-66
2021/06/03 10:44:06;;;;;;;2.80;2.37;;;;;;;28.27;45.69;96780.75;4985106;28;20201;-67
2021/06/03 10:46:32;;;;;;;2.10;2.00;;;;;;;28.23;43.81;96777.13;4985306;28;20589;-71
2021/06/03 10:48:57;;;;;;;2.70;2.00;;;;;;;28.39;43.08;96789.75;4982629;28;20544;-67
2021/06/03 10:51:23;;;;;;;3.10;2.30;;;;;;;27.98;42.00;96776.16;4983390;28;20265;-70
2021/06/03 10:53:49;;;;;;;2.27;2.13;;;;;;;27.81;42.22;96781.63;4974273;28;20198;-68
2021/06/03 10:56:21;;;;;;;2.33;2.10;;;;;;;27.56;42.02;96774.44;4972701;28;20785;-67
2021/06/03 10:58:49;;;;;;;2.60;2.40;;;;;;;27.35;44.03;96777.06;4984692;28;20193;-71
2021/06/03 11:01:20;;;;;;;2.27;2.07;;;;;;;27.28;43.54;96779.44;4971459;28;20481;-67
2021/06/03 11:04:00;;;;;;;3.00;2.57;;;;;;;27.39;43.52;96774.50;4978703;28;20448;-67
2021/06/03 11:06:28;;;;;;;2.43;2.23;;;;;;;27.37;43.38;96779.44;4975355;28;20445;-68
2021/06/03 11:09:02;;;;;;;2.50;2.30;;;;;;;27.05;47.65;96783.44;4970940;28;20707;-68
2021/06/03 11:11:35;;;;;;;2.60;2.40;;;;;;;26.61;50.24;96791.06;4971794;28;20796;-69
2021/06/03 11:14:07;;;;;;;2.77;2.57;;;;;;;26.40;50.46;96788.97;4976522;28;20539;-71
2021/06/03 11:16:36;;;;;;;2.60;2.40;;;;;;;26.16;51.90;96788.63;4985766;28;20478;-67
2021/06/03 11:19:01;;;;;;;2.50;2.30;;;;;;;26.45;53.65;96783.44;4975375;28;20552;-68
2021/06/03 11:21:33;;;;;;;3.60;2.73;;;;;;;26.25;53.84;96780.56;4970565;28;20508;-70
2021/06/03 11:24:04;;;;;;;2.47;2.37;;;;;;;26.52;53.01;96772.19;4979479;28;20221;-72
2021/06/03 11:26:42;;;;;;;4.10;2.67;;;;;;;26.81;55.25;96771.56;4982211;28;20920;-70
2021/06/03 11:29:12;;;;;;;2.70;2.53;;;;;;;27.05;51.46;96763.75;4971286;28;20986;-68
2021/06/03 11:31:43;;;;;;;3.07;2.87;;;;;;;27.34;50.68;96766.56;4991852;28;20428;-70
2021/06/03 11:34:12;;;;;;;3.13;2.93;;;;;;;27.36;49.64;96775.94;4988804;28;20844;-68
2021/06/03 11:36:39;;;;;;;2.57;2.40;;;;;;;27.60;47.94;96763.75;4985842;28;20544;-68